Time;durP1;ratioP1;P1;durP2;ratioP2;P2;SDS_P1;SDS_P2;PMS_P1;PMS_P2;Temp;Humidity;BMP_temperature;BMP_pressure;BME280_temperature;BME280_humidity;BME280_pressure;Samples;Min_cycle;Max_cycle;Signal;HPM_P1;HPM_P2
2022/08/31 00:04:28;;;;;;;0.10;0.10;;;;;;;16.30;60.76;102070.13;6272050;28;20053;-80
2022/08/31 00:07:33;;;;;;;0.32;0.28;;;;;;;16.21;60.77;102072.38;6273008;28;20055;-80
2022/08/31 00:10:39;;;;;;;0.20;0.20;;;;;;;16.19;61.15;102071.59;6272373;28;20131;-80
2022/08/31 00:13:41;;;;;;;0.43;0.20;;;;;;;16.19;61.51;102068.06;6272249;28;20061;-79
2022/08/31 00:16:44;;;;;;;0.17;0.17;;;;;;;16.23;61.72;102064.31;6272714;28;20412;-81
2022/08/31 00:19:46;;;;;;;0.20;0.20;;;;;;;16.21;61.42;102063.53;6272485;28;20519;-80
2022/08/31 00:22:47;;;;;;;0.50;0.30;;;;;;;16.20;62.03;102069.78;6272594;28;20045;-81
2022/08/31 00:25:50;;;;;;;0.30;0.22;;;;;;;16.16;62.53;102065.59;6272130;28;20049;-80
2022/08/31 00:28:52;;;;;;;1.95;0.22;;;;;;;16.05;62.98;102074.16;6272331;28;20045;-80
2022/08/31 00:31:53;;;;;;;0.32;0.30;;;;;;;16.08;63.60;102075.75;6275896;28;20041;-80
2022/08/31 00:34:55;;;;;;;0.10;0.10;;;;;;;16.04;63.42;102068.94;6276826;28;20053;-81
2022/08/31 00:37:57;;;;;;;0.75;0.32;;;;;;;16.02;63.31;102074.31;6276770;28;20053;-81
2022/08/31 00:41:00;;;;;;;0.10;0.10;;;;;;;16.02;63.80;102076.09;6276650;28;20479;-81
2022/08/31 00:44:04;;;;;;;0.47;0.30;;;;;;;15.95;64.16;102072.94;6276380;28;20057;-80
2022/08/31 00:47:05;;;;;;;0.10;0.10;;;;;;;15.91;64.37;102079.34;6277242;28;20056;-80
2022/08/31 00:50:10;;;;;;;0.38;0.20;;;;;;;15.86;64.90;102071.66;6276769;28;20058;-80
2022/08/31 00:53:11;;;;;;;0.10;0.10;;;;;;;15.87;64.68;102075.16;6277150;28;20462;-80
2022/08/31 00:56:15;;;;;;;0.38;0.38;;;;;;;15.85;64.86;102077.00;6276585;28;20148;-80
2022/08/31 00:59:19;;;;;;;0.50;0.38;;;;;;;15.73;65.17;102067.94;6276417;28;20041;-80
2022/08/31 01:02:20;;;;;;;0.20;0.10;;;;;;;15.62;65.83;102071.13;6276182;28;20045;-79
2022/08/31 01:05:22;;;;;;;1.33;0.30;;;;;;;15.59;66.00;102059.84;6276793;28;20056;-80
2022/08/31 01:08:24;;;;;;;0.38;0.20;;;;;;;15.55;66.31;102063.59;6276277;28;20057;-79
2022/08/31 01:11:27;;;;;;;0.38;0.17;;;;;;;15.54;66.61;102060.09;6276277;28;20052;-81
2022/08/31 01:14:29;;;;;;;0.52;0.35;;;;;;;15.46;66.72;102054.34;6276145;28;20049;-80
2022/08/31 01:17:32;;;;;;;2.92;0.40;;;;;;;15.36;67.56;102053.13;6275890;28;20053;-80
2022/08/31 01:20:45;;;;;;;0.20;0.20;;;;;;;15.33;67.46;102056.78;6275518;28;20052;-80
2022/08/31 01:23:48;;;;;;;0.30;0.25;;;;;;;15.18;68.42;102055.78;6274918;28;20428;-81
2022/08/31 01:26:50;;;;;;;0.80;0.40;;;;;;;15.09;69.12;102044.81;6275946;28;20057;-80
2022/08/31 01:29:52;;;;;;;0.80;0.30;;;;;;;15.07;69.44;102050.16;6275114;28;20393;-80
2022/08/31 01:32:53;;;;;;;0.43;0.20;;;;;;;15.12;69.76;102055.22;6276112;28;20049;-81
2022/08/31 01:35:55;;;;;;;0.95;0.50;;;;;;;15.12;69.59;102052.59;6274979;28;20049;-79
2022/08/31 01:38:58;;;;;;;0.63;0.43;;;;;;;15.10;69.89;102057.97;6275656;28;20049;-80
2022/08/31 01:41:59;;;;;;;0.25;0.25;;;;;;;15.03;70.49;102053.91;6274091;28;20385;-80
2022/08/31 01:45:01;;;;;;;0.77;0.30;;;;;;;14.94;70.73;102051.72;6275013;28;20447;-79
2022/08/31 01:48:03;;;;;;;0.20;0.20;;;;;;;14.92;70.86;102062.41;6275613;28;20056;-79
2022/08/31 01:51:05;;;;;;;1.65;0.60;;;;;;;14.93;71.25;102069.41;6275266;28;20048;-79
2022/08/31 01:54:08;;;;;;;0.32;0.30;;;;;;;14.80;72.05;102072.75;6275119;28;20049;-80
2022/08/31 01:57:10;;;;;;;0.50;0.20;;;;;;;14.67;72.67;102067.19;6275115;28;20053;-79
2022/08/31 02:00:12;;;;;;;0.40;0.35;;;;;;;14.61;73.12;102073.66;6274819;28;20045;-79
2022/08/31 02:03:14;;;;;;;0.70;0.30;;;;;;;14.63;73.25;102077.09;6275843;28;20044;-80
2022/08/31 02:06:15;;;;;;;0.30;0.20;;;;;;;14.63;73.11;102070.97;6274929;28;20049;-81
2022/08/31 02:09:19;;;;;;;1.85;0.70;;;;;;;14.62;73.19;102071.88;6275397;28;20515;-80
2022/08/31 02:12:21;;;;;;;1.33;0.55;;;;;;;14.57;73.74;102069.44;6274802;28;20049;-80
2022/08/31 02:15:22;;;;;;;0.75;0.52;;;;;;;14.48;74.08;102067.25;6271533;28;20048;-79
2022/08/31 02:18:23;;;;;;;0.40;0.40;;;;;;;14.47;74.43;102071.66;6275093;28;20045;-80
2022/08/31 02:21:26;;;;;;;0.47;0.40;;;;;;;14.39;74.84;102078.25;6274155;28;20049;-80
2022/08/31 02:24:28;;;;;;;0.65;0.43;;;;;;;14.28;75.25;102078.75;6260385;28;20053;-79
2022/08/31 02:27:30;;;;;;;0.77;0.50;;;;;;;14.21;75.68;102075.53;6249671;28;20464;-80
2022/08/31 02:30:31;;;;;;;0.45;0.30;;;;;;;14.21;76.01;102074.69;6249880;28;20050;-80
2022/08/31 02:33:32;;;;;;;0.80;0.75;;;;;;;14.19;76.39;102069.47;6250107;28;20060;-80
2022/08/31 02:36:34;;;;;;;3.22;0.75;;;;;;;14.22;76.28;102073.78;6248856;28;20432;-80
2022/08/31 02:39:37;;;;;;;0.60;0.50;;;;;;;14.12;76.52;102075.97;6249247;28;20045;-79
2022/08/31 02:42:38;;;;;;;1.02;0.60;;;;;;;14.07;76.71;102077.13;6249272;28;20072;-80
2022/08/31 02:45:40;;;;;;;2.75;0.73;;;;;;;14.08;77.18;102078.81;6248803;28;20049;-79
2022/08/31 02:48:41;;;;;;;1.05;0.57;;;;;;;13.96;77.55;102082.91;6248821;28;20056;-79
2022/08/31 02:51:43;;;;;;;1.92;0.70;;;;;;;13.77;79.12;102074.13;6248676;28;20057;-80
2022/08/31 02:54:46;;;;;;;2.45;0.70;;;;;;;13.72;79.12;102063.75;6247816;28;20061;-80
2022/08/31 02:57:47;;;;;;;1.23;0.50;;;;;;;13.88;79.58;102079.75;6248983;28;20493;-79
2022/08/31 03:00:49;;;;;;;0.70;0.60;;;;;;;14.00;78.51;102081.84;6249087;28;20046;-79
2022/08/31 03:03:50;;;;;;;1.77;0.80;;;;;;;13.99;77.96;102074.84;6248534;28;20060;-80
2022/08/31 03:06:52;;;;;;;4.88;0.55;;;;;;;13.92;78.30;102076.06;6248732;28;20053;-80
2022/08/31 03:09:54;;;;;;;0.73;0.57;;;;;;;13.83;78.65;102076.47;6251512;28;20063;-80
2022/08/31 03:12:56;;;;;;;1.27;0.57;;;;;;;13.80;78.93;102074.81;6249295;28;20052;-79
2022/08/31 03:15:57;;;;;;;0.40;0.40;;;;;;;13.73;79.81;102069.91;6248507;28;20524;-80
2022/08/31 03:18:59;;;;;;;1.88;0.77;;;;;;;13.65;80.19;102063.16;6248766;28;20056;-79
2022/08/31 03:22:00;;;;;;;1.75;0.73;;;;;;;13.64;80.94;102064.09;6248378;28;20056;-80
2022/08/31 03:25:05;;;;;;;1.35;0.70;;;;;;;13.61;81.45;102058.94;6248294;28;20524;-80
2022/08/31 03:28:06;;;;;;;2.35;0.60;;;;;;;13.67;81.40;102060.44;6249025;28;20056;-80
2022/08/31 03:31:08;;;;;;;1.25;0.60;;;;;;;13.55;80.63;102048.66;6248454;28;20512;-80
2022/08/31 03:34:10;;;;;;;1.05;0.50;;;;;;;13.46;81.67;102059.66;6247615;28;20053;-80
2022/08/31 03:37:12;;;;;;;1.02;0.52;;;;;;;13.28;82.55;102061.31;6248495;28;20515;-81
2022/08/31 03:40:15;;;;;;;0.30;0.30;;;;;;;13.32;83.57;102065.53;6248059;28;20049;-80
2022/08/31 03:43:17;;;;;;;0.68;0.50;;;;;;;13.28;83.03;102063.94;6248290;28;20389;-80
2022/08/31 03:46:18;;;;;;;0.63;0.45;;;;;;;13.25;83.94;102069.34;6247952;28;20049;-81
2022/08/31 03:49:20;;;;;;;0.90;0.65;;;;;;;13.41;84.51;102061.63;6248760;28;20049;-80
2022/08/31 03:52:21;;;;;;;0.43;0.43;;;;;;;13.47;83.26;102069.28;6247797;28;20056;-80
2022/08/31 03:55:24;;;;;;;1.15;0.93;;;;;;;13.54;83.24;102069.88;6248243;28;20124;-80
2022/08/31 03:58:25;;;;;;;0.93;0.60;;;;;;;13.52;82.91;102066.44;6248724;28;20057;-80
2022/08/31 04:01:26;;;;;;;1.08;0.60;;;;;;;13.49;83.41;102071.84;6248372;28;20041;-80
2022/08/31 04:04:28;;;;;;;1.08;0.60;;;;;;;13.43;83.44;102075.63;6249848;28;20276;-80
2022/08/31 04:07:29;;;;;;;1.02;0.50;;;;;;;13.43;83.45;102078.25;6253645;28;20041;-80
2022/08/31 04:10:32;;;;;;;0.85;0.50;;;;;;;13.37;83.40;102076.75;6252921;28;20049;-79
2022/08/31 04:13:34;;;;;;;0.63;0.55;;;;;;;13.27;84.48;102078.06;6253086;28;20191;-79
2022/08/31 04:16:36;;;;;;;7.15;0.98;;;;;;;13.19;84.87;102088.06;6252935;28;20417;-80
2022/08/31 04:19:40;;;;;;;2.47;0.50;;;;;;;13.15;84.99;102086.47;6253121;28;20053;-80
2022/08/31 04:22:42;;;;;;;0.80;0.40;;;;;;;13.06;85.92;102089.50;6255541;28;20128;-81
2022/08/31 04:25:44;;;;;;;0.75;0.50;;;;;;;13.11;86.13;102085.75;6254171;28;20053;-80
2022/08/31 04:28:47;;;;;;;0.70;0.40;;;;;;;13.08;86.26;102088.53;6253577;28;20045;-80
2022/08/31 04:31:48;;;;;;;1.73;0.80;;;;;;;13.07;86.62;102083.31;6252142;28;20048;-79
2022/08/31 04:34:50;;;;;;;1.85;0.70;;;;;;;13.11;87.30;102087.53;6252262;28;20497;-80
2022/08/31 04:37:51;;;;;;;0.30;0.30;;;;;;;13.15;86.89;102091.75;6252790;28;20049;-79
2022/08/31 04:40:54;;;;;;;1.30;0.90;;;;;;;13.16;86.83;102096.97;6252543;28;20050;-79
2022/08/31 04:43:58;;;;;;;0.73;0.43;;;;;;;13.16;87.34;102096.97;6252527;28;20053;-79
2022/08/31 04:46:59;;;;;;;1.33;0.47;;;;;;;13.15;87.41;102104.97;6252097;28;20413;-79
2022/08/31 04:50:00;;;;;;;0.38;0.32;;;;;;;13.21;87.36;102109.97;6252073;28;20061;-80
2022/08/31 04:53:02;;;;;;;1.40;0.65;;;;;;;13.24;87.15;102111.66;6252102;28;20049;-79
2022/08/31 04:56:08;;;;;;;0.30;0.30;;;;;;;13.19;87.11;102117.97;6252073;28;20045;-79
2022/08/31 04:59:12;;;;;;;0.65;0.45;;;;;;;13.26;87.48;102121.22;6252322;28;20049;-79
2022/08/31 05:02:14;;;;;;;0.30;0.30;;;;;;;13.23;87.72;102131.06;6265405;28;20048;-80
2022/08/31 05:05:15;;;;;;;0.82;0.52;;;;;;;13.25;88.06;102126.56;6275980;28;20053;-80
2022/08/31 05:08:17;;;;;;;0.70;0.57;;;;;;;13.29;87.94;102130.81;6276316;28;20485;-79
2022/08/31 05:11:20;;;;;;;0.40;0.40;;;;;;;13.32;88.22;102131.53;6275011;28;20524;-79
2022/08/31 05:14:23;;;;;;;0.82;0.50;;;;;;;13.35;87.64;102133.16;6274250;28;20048;-80
2022/08/31 05:17:25;;;;;;;0.50;0.50;;;;;;;13.36;88.12;102129.63;6275955;28;20045;-81
2022/08/31 05:20:27;;;;;;;1.13;0.70;;;;;;;13.39;88.23;102132.97;6278180;28;20083;-79
2022/08/31 05:23:29;;;;;;;5.72;1.88;;;;;;;13.36;87.02;102137.56;6276288;28;20052;-80
2022/08/31 05:26:34;;;;;;;0.32;0.32;;;;;;;13.33;87.75;102130.59;6276003;28;20107;-80
2022/08/31 05:29:35;;;;;;;0.32;0.32;;;;;;;13.30;87.79;102137.78;6275924;28;20049;-80
2022/08/31 05:32:37;;;;;;;0.80;0.55;;;;;;;13.27;87.89;102135.31;6274930;28;20047;-79
2022/08/31 05:35:39;;;;;;;0.55;0.50;;;;;;;13.16;88.45;102136.56;6274031;28;20408;-80
2022/08/31 05:38:41;;;;;;;1.67;0.98;;;;;;;13.23;88.62;102137.22;6274622;28;20061;-80
2022/08/31 05:41:46;;;;;;;1.02;0.50;;;;;;;13.25;88.83;102138.00;6274818;28;20055;-79
2022/08/31 05:44:47;;;;;;;10.02;0.75;;;;;;;13.28;88.90;102145.78;6273953;28;20054;-79
2022/08/31 05:47:49;;;;;;;1.33;0.80;;;;;;;13.30;89.62;102149.22;6274169;28;20044;-81
2022/08/31 05:50:50;;;;;;;2.58;0.85;;;;;;;13.38;88.55;102148.91;6273587;28;20389;-81
2022/08/31 05:53:52;;;;;;;1.95;0.85;;;;;;;13.39;89.00;102148.81;6273343;28;20049;-80
2022/08/31 05:56:54;;;;;;;1.95;0.80;;;;;;;13.44;89.14;102149.50;6274435;28;20049;-81
2022/08/31 05:59:55;;;;;;;1.73;0.98;;;;;;;13.38;89.18;102151.53;6273076;28;20059;-79
2022/08/31 06:02:57;;;;;;;3.83;1.30;;;;;;;13.39;89.61;102158.53;6273569;28;20056;-80
2022/08/31 06:05:58;;;;;;;3.40;1.40;;;;;;;13.30;90.04;102154.50;6271572;28;20052;-81
2022/08/31 06:09:00;;;;;;;2.20;1.25;;;;;;;13.31;90.70;102158.88;6274743;28;20049;-79
2022/08/31 06:12:04;;;;;;;6.35;2.33;;;;;;;13.35;90.89;102164.84;6274485;28;20056;-81
2022/08/31 06:15:06;;;;;;;2.90;1.95;;;;;;;13.40;91.01;102163.75;6274328;28;20049;-80
2022/08/31 06:18:08;;;;;;;3.08;1.83;;;;;;;13.47;90.53;102160.84;6274874;28;20055;-81
2022/08/31 06:21:11;;;;;;;5.00;1.58;;;;;;;13.45;91.02;102168.84;6273871;28;20493;-80
2022/08/31 06:24:13;;;;;;;5.07;1.40;;;;;;;13.54;91.07;102164.97;6273633;28;20408;-80
2022/08/31 06:27:16;;;;;;;10.38;2.10;;;;;;;13.60;90.09;102170.81;6274213;28;20049;-80
2022/08/31 06:30:20;;;;;;;3.53;1.50;;;;;;;13.66;90.15;102167.06;6272985;28;20048;-81
2022/08/31 06:33:22;;;;;;;5.68;1.92;;;;;;;13.68;90.51;102171.34;6269844;28;20053;-80
2022/08/31 06:36:25;;;;;;;3.33;1.42;;;;;;;13.70;90.28;102176.56;6271149;28;20051;-80
2022/08/31 06:39:26;;;;;;;5.32;2.08;;;;;;;13.76;90.36;102172.78;6272048;28;20642;-79
2022/08/31 06:42:29;;;;;;;4.47;1.75;;;;;;;13.80;90.10;102175.22;6272636;28;20048;-80
2022/08/31 06:45:30;;;;;;;2.05;1.40;;;;;;;13.85;90.25;102170.63;6272258;28;20053;-80
2022/08/31 06:48:32;;;;;;;2.40;1.52;;;;;;;13.92;90.04;102176.47;6270301;28;20052;-79
2022/08/31 06:51:35;;;;;;;4.60;1.20;;;;;;;13.89;90.05;102172.19;6272766;28;20048;-79
2022/08/31 06:54:36;;;;;;;2.47;1.40;;;;;;;13.94;90.42;102178.16;6272823;28;20051;-81
2022/08/31 06:57:39;;;;;;;4.18;1.70;;;;;;;13.99;90.34;102172.66;6272929;28;20493;-79
2022/08/31 07:00:41;;;;;;;5.15;1.70;;;;;;;14.09;89.85;102175.75;6272431;28;20060;-80
2022/08/31 07:03:44;;;;;;;3.40;1.52;;;;;;;14.10;89.72;102174.81;6272335;28;20049;-80
2022/08/31 07:06:46;;;;;;;4.10;1.70;;;;;;;14.11;89.63;102174.72;6272820;28;20053;-80
2022/08/31 07:09:47;;;;;;;4.72;2.15;;;;;;;14.11;89.94;102174.72;6272495;28;20056;-80
2022/08/31 07:12:49;;;;;;;4.38;1.58;;;;;;;14.13;90.09;102182.59;6272773;28;20417;-80
2022/08/31 07:15:51;;;;;;;4.78;1.77;;;;;;;14.14;89.95;102189.59;6272141;28;20052;-79
2022/08/31 07:18:54;;;;;;;2.38;1.33;;;;;;;14.20;90.07;102191.97;6272802;28;20052;-80
2022/08/31 07:21:57;;;;;;;3.63;1.95;;;;;;;14.25;89.72;102189.97;6272440;28;20412;-80
2022/08/31 07:24:58;;;;;;;2.75;1.30;;;;;;;14.26;89.94;102191.69;6272715;28;20048;-80
2022/08/31 07:28:01;;;;;;;5.90;1.70;;;;;;;14.21;90.45;102196.31;6272515;28;20060;-79
2022/08/31 07:31:04;;;;;;;3.67;1.30;;;;;;;14.28;90.74;102192.47;6271895;28;20521;-80
2022/08/31 07:34:06;;;;;;;2.15;1.40;;;;;;;14.34;90.79;102188.69;6271437;28;20053;-80
2022/08/31 07:43:47;;;;;;;3.05;1.80;;;;;;;14.69;90.04;102197.66;6261034;28;19921;-81
2022/08/31 07:46:51;;;;;;;4.35;2.10;;;;;;;14.76;89.85;102200.84;6262862;28;20053;-80
2022/08/31 07:49:53;;;;;;;6.43;1.88;;;;;;;14.84;90.07;102202.22;6270096;28;20059;-81
2022/08/31 07:52:57;;;;;;;5.05;2.03;;;;;;;14.89;89.93;102199.34;6271942;28;20514;-80
2022/08/31 07:55:59;;;;;;;3.22;1.73;;;;;;;14.98;90.00;102194.47;6270836;28;20045;-79
2022/08/31 07:59:02;;;;;;;2.83;1.73;;;;;;;15.15;89.91;102193.63;6269315;28;20511;-81
2022/08/31 08:02:03;;;;;;;7.68;1.85;;;;;;;15.22;89.60;102196.84;6261716;28;20439;-79
2022/08/31 08:05:07;;;;;;;3.45;1.95;;;;;;;15.34;89.61;102203.31;6260854;28;20067;-79
2022/08/31 08:08:11;;;;;;;4.68;1.90;;;;;;;15.46;89.60;102208.88;6273592;28;20119;-79
2022/08/31 08:11:15;;;;;;;3.47;1.52;;;;;;;15.56;89.17;102209.25;6271691;28;20080;-82
2022/08/31 08:14:18;;;;;;;10.50;2.00;;;;;;;15.65;88.96;102219.41;6271090;28;20045;-80
2022/08/31 08:17:21;;;;;;;2.83;1.70;;;;;;;15.78;87.87;102214.34;6261971;28;20045;-79
2022/08/31 08:20:23;;;;;;;4.70;2.40;;;;;;;15.86;88.60;102206.84;6266265;28;20428;-76
2022/08/31 08:23:26;;;;;;;3.67;2.00;;;;;;;16.02;87.52;102206.03;6246260;28;20056;-76
2022/08/31 08:26:27;;;;;;;2.40;1.23;;;;;;;16.11;85.81;102211.72;6252550;28;20041;-75
2022/08/31 08:29:30;;;;;;;2.38;1.30;;;;;;;16.16;85.06;102209.66;6271336;28;20044;-80
2022/08/31 08:32:31;;;;;;;3.17;0.90;;;;;;;16.28;84.19;102204.66;6271372;28;20492;-81
2022/08/31 08:35:33;;;;;;;1.77;1.00;;;;;;;16.39;81.95;102207.56;6271006;28;20076;-80
2022/08/31 08:38:37;;;;;;;2.67;0.88;;;;;;;16.48;81.57;102207.06;6271511;28;20048;-81
2022/08/31 08:41:41;;;;;;;2.90;1.10;;;;;;;16.51;81.10;102208.72;6266500;28;20053;-80
2022/08/31 08:44:44;;;;;;;1.95;1.10;;;;;;;16.53;81.81;102205.00;6271180;28;20045;-80
2022/08/31 08:47:49;;;;;;;1.17;0.60;;;;;;;16.55;80.09;102208.47;6271413;28;20045;-79
2022/08/31 08:50:52;;;;;;;1.08;0.80;;;;;;;16.53;81.07;102209.47;6271447;28;20055;-79
2022/08/31 08:54:03;;;;;;;2.70;0.70;;;;;;;16.55;80.73;102203.16;6275394;28;20056;-81
2022/08/31 08:57:14;;;;;;;0.93;0.63;;;;;;;16.63;79.51;102206.25;6276034;28;20412;-81
2022/08/31 09:00:21;;;;;;;0.82;0.55;;;;;;;16.68;77.33;102204.19;6275714;28;20539;-80
2022/08/31 09:03:32;;;;;;;1.60;0.40;;;;;;;16.80;78.38;102201.81;6275375;28;20053;-81
2022/08/31 09:06:40;;;;;;;4.38;0.63;;;;;;;16.90;78.15;102200.38;6275511;28;20052;-80
2022/08/31 09:09:52;;;;;;;1.33;0.70;;;;;;;16.95;76.28;102196.50;6263444;28;20053;-80
2022/08/31 09:13:08;;;;;;;0.77;0.40;;;;;;;17.10;74.40;102202.72;6262908;28;20049;-81
2022/08/31 09:16:24;;;;;;;0.40;0.40;;;;;;;17.19;73.00;102199.53;6254321;28;20040;-79
2022/08/31 09:19:26;;;;;;;0.73;0.50;;;;;;;17.30;71.79;102203.38;6250949;28;20056;-80
2022/08/31 09:22:28;;;;;;;0.52;0.47;;;;;;;17.45;70.54;102198.03;6250848;28;20057;-81
2022/08/31 09:25:34;;;;;;;0.57;0.50;;;;;;;17.52;69.95;102195.84;6260804;28;20420;-80
2022/08/31 09:28:42;;;;;;;0.65;0.35;;;;;;;17.60;68.79;102185.59;6273677;28;20053;-80
2022/08/31 09:31:45;;;;;;;1.48;0.30;;;;;;;17.65;68.14;102195.97;6273192;28;20053;-80
2022/08/31 09:34:54;;;;;;;0.65;0.40;;;;;;;17.69;67.66;102189.53;6274270;28;20401;-81
2022/08/31 09:38:01;;;;;;;2.40;0.57;;;;;;;17.73;68.05;102197.25;6275017;28;20409;-81
2022/08/31 09:41:04;;;;;;;0.30;0.30;;;;;;;17.76;67.51;102196.22;6274653;28;20053;-79
2022/08/31 09:44:24;;;;;;;0.68;0.43;;;;;;;17.74;66.85;102198.97;6275064;28;20138;-79
2022/08/31 09:47:54;;;;;;;0.88;0.30;;;;;;;17.74;65.86;102190.13;6277355;28;20049;-80
2022/08/31 09:51:02;;;;;;;0.15;0.15;;;;;;;17.77;65.87;102186.44;6254669;28;20053;-79
2022/08/31 09:57:42;;;;;;;0.20;0.10;;;;;;;18.06;65.87;102188.16;6253080;28;20049;-80
2022/08/31 10:00:50;;;;;;;1.00;0.38;;;;;;;18.20;64.83;102179.31;6250312;28;20049;-79
2022/08/31 10:04:08;;;;;;;1.65;0.50;;;;;;;18.40;63.19;102181.59;6253398;28;20227;-81
2022/08/31 10:07:27;;;;;;;3.03;0.30;;;;;;;18.52;63.28;102179.94;6261955;28;20045;-79
2022/08/31 10:10:32;;;;;;;0.73;0.30;;;;;;;18.67;61.00;102186.97;6274657;28;20057;-80
2022/08/31 10:13:38;;;;;;;0.63;0.40;;;;;;;18.75;58.63;102183.81;6274839;28;20309;-80
2022/08/31 10:16:46;;;;;;;0.55;0.40;;;;;;;18.88;58.83;102175.88;6274728;28;20523;-82
2022/08/31 10:20:00;;;;;;;0.85;0.40;;;;;;;18.95;59.26;102178.06;6273773;28;20139;-81
2022/08/31 10:23:13;;;;;;;0.30;0.30;;;;;;;19.07;57.44;102186.19;6274282;28;20094;-80
2022/08/31 10:26:27;;;;;;;1.35;0.47;;;;;;;19.05;57.98;102180.13;6274826;28;20139;-79
2022/08/31 10:29:38;;;;;;;0.32;0.30;;;;;;;19.25;56.73;102184.94;6275642;28;20119;-78
2022/08/31 10:32:44;;;;;;;0.47;0.35;;;;;;;19.31;56.49;102178.38;6276122;28;20500;-80
2022/08/31 10:35:53;;;;;;;0.38;0.25;;;;;;;19.40;55.83;102175.94;6267461;28;20100;-80
2022/08/31 10:38:56;;;;;;;0.70;0.40;;;;;;;19.38;55.60;102171.66;6269159;28;20539;-79
2022/08/31 10:42:08;;;;;;;0.43;0.30;;;;;;;19.42;55.41;102166.00;6276634;28;20420;-77
2022/08/31 10:45:14;;;;;;;0.95;0.45;;;;;;;19.42;56.63;102162.50;6275779;28;20546;-81
2022/08/31 10:48:16;;;;;;;0.30;0.30;;;;;;;19.33;57.63;102158.63;6275901;28;20056;-79
2022/08/31 10:51:28;;;;;;;0.80;0.47;;;;;;;19.27;56.71;102162.59;6274932;28;20053;-80
2022/08/31 10:54:39;;;;;;;0.93;0.38;;;;;;;19.30;57.25;102153.50;6275615;28;20056;-79
2022/08/31 10:57:49;;;;;;;1.50;0.40;;;;;;;19.48;54.51;102152.28;6275244;28;20051;-79
2022/08/31 11:00:56;;;;;;;0.80;0.55;;;;;;;19.57;56.33;102157.91;6276123;28;20051;-79
2022/08/31 11:04:21;;;;;;;1.27;0.40;;;;;;;19.71;57.62;102145.38;6275063;28;20511;-78
2022/08/31 11:07:35;;;;;;;0.28;0.28;;;;;;;20.03;55.42;102147.63;6250373;28;20049;-79
2022/08/31 11:10:46;;;;;;;0.38;0.38;;;;;;;20.16;54.22;102139.56;6277263;28;20045;-78
2022/08/31 11:14:04;;;;;;;1.27;0.73;;;;;;;20.29;53.91;102137.72;6273351;28;20575;-79
2022/08/31 11:17:33;;;;;;;0.50;0.25;;;;;;;20.45;53.78;102142.81;6277459;28;20116;-80
2022/08/31 11:20:56;;;;;;;0.68;0.30;;;;;;;20.51;49.61;102137.03;6273534;28;20049;-78
2022/08/31 11:24:14;;;;;;;0.77;0.47;;;;;;;20.50;49.05;102130.00;6248138;28;20046;-78
2022/08/31 11:27:22;;;;;;;0.40;0.40;;;;;;;20.63;49.13;102133.47;6250664;28;20060;-79
2022/08/31 11:30:28;;;;;;;0.85;0.70;;;;;;;20.78;49.23;102129.66;6248065;28;20148;-79
2022/08/31 11:33:31;;;;;;;1.00;0.30;;;;;;;20.91;49.22;102126.09;6248608;28;20681;-79
2022/08/31 11:36:48;;;;;;;0.43;0.25;;;;;;;21.21;48.88;102125.56;6248107;28;20497;-79
2022/08/31 11:39:52;;;;;;;0.80;0.43;;;;;;;21.57;47.09;102121.06;6248015;28;20049;-77
2022/08/31 11:42:59;;;;;;;0.45;0.35;;;;;;;21.55;47.30;102129.22;6248137;28;20099;-79
2022/08/31 11:46:59;;;;;;;0.85;0.28;;;;;;;21.75;47.35;102117.78;6248415;28;20053;-79
2022/08/31 11:50:04;;;;;;;0.95;0.68;;;;;;;21.99;46.61;102108.81;6201214;28;20057;-80
2022/08/31 11:53:19;;;;;;;1.83;0.50;;;;;;;22.25;45.62;102107.56;6248845;28;20049;-80
2022/08/31 11:56:35;;;;;;;2.35;0.40;;;;;;;22.45;44.05;102114.00;6261548;28;20045;-80
2022/08/31 11:59:44;;;;;;;1.35;0.40;;;;;;;22.82;42.88;102102.91;6268281;28;20049;-81
2022/08/31 12:03:02;;;;;;;0.63;0.40;;;;;;;22.85;41.40;102096.44;6276156;28;20049;-78
2022/08/31 12:06:08;;;;;;;0.50;0.30;;;;;;;23.22;42.50;102092.38;6271572;28;20049;-80
2022/08/31 12:09:26;;;;;;;1.45;0.55;;;;;;;23.43;42.94;102096.84;6272550;28;20045;-80
2022/08/31 12:13:06;;;;;;;0.60;0.50;;;;;;;23.89;40.90;102091.03;6271643;28;20052;-79
2022/08/31 12:16:26;;;;;;;0.43;0.30;;;;;;;23.79;40.94;102090.97;6272907;28;20519;-80
2022/08/31 12:19:58;;;;;;;0.20;0.20;;;;;;;23.87;40.70;102090.31;6275282;28;20404;-79
2022/08/31 12:23:36;;;;;;;0.20;0.20;;;;;;;23.94;40.57;102086.13;6275037;28;20134;-79
2022/08/31 12:26:55;;;;;;;0.82;0.40;;;;;;;23.99;39.76;102064.22;6276932;28;20049;-76
2022/08/31 12:30:16;;;;;;;0.40;0.32;;;;;;;24.03;39.56;102061.13;6271693;28;20053;-79
2022/08/31 12:33:21;;;;;;;1.02;0.30;;;;;;;24.33;40.18;102061.16;6279224;28;20053;-79
2022/08/31 12:36:28;;;;;;;0.20;0.20;;;;;;;24.51;38.11;102054.13;6259169;28;20056;-80
2022/08/31 12:39:30;;;;;;;1.88;0.38;;;;;;;24.59;37.94;102059.66;6253821;28;20045;-78
2022/08/31 12:42:34;;;;;;;3.08;0.40;;;;;;;24.69;38.60;102052.44;6265274;28;20060;-79
2022/08/31 12:46:01;;;;;;;0.28;0.28;;;;;;;24.62;38.46;102051.31;6277132;28;20045;-79
2022/08/31 12:49:25;;;;;;;2.63;0.32;;;;;;;24.94;38.11;102045.63;6252859;28;20425;-79
2022/08/31 12:52:43;;;;;;;0.60;0.50;;;;;;;25.17;36.40;102046.19;6270466;28;20049;-80
2022/08/31 12:55:51;;;;;;;0.98;0.30;;;;;;;25.29;36.75;102038.78;6256951;28;20045;-81
2022/08/31 12:59:06;;;;;;;1.47;0.60;;;;;;;25.37;37.33;102038.91;6268277;28;20060;-80
2022/08/31 13:02:13;;;;;;;0.82;0.40;;;;;;;25.62;34.83;102041.91;6275863;28;20056;-80
2022/08/31 13:05:17;;;;;;;0.30;0.30;;;;;;;25.76;34.84;102044.16;6275634;28;20049;-80
2022/08/31 13:08:20;;;;;;;0.20;0.20;;;;;;;25.92;34.87;102032.72;6275987;28;20064;-80
2022/08/31 13:11:28;;;;;;;1.13;0.40;;;;;;;26.13;35.01;102037.84;6275501;28;20128;-81
2022/08/31 13:14:38;;;;;;;0.43;0.30;;;;;;;26.09;35.31;102039.16;6276925;28;20052;-77
2022/08/31 13:17:41;;;;;;;1.45;0.80;;;;;;;26.01;35.17;102029.13;6276112;28;20071;-79
2022/08/31 13:20:45;;;;;;;8.30;4.85;;;;;;;25.88;35.67;102032.16;6275259;28;20052;-80
2022/08/31 13:23:49;;;;;;;0.60;0.55;;;;;;;25.87;34.81;102026.94;6275219;28;20053;-80
2022/08/31 13:27:03;;;;;;;0.20;0.20;;;;;;;26.07;33.86;102025.81;6295590;22;20054;-81
2022/08/31 13:30:17;;;;;;;0.43;0.30;;;;;;;26.21;33.91;102019.06;6262275;28;20120;-80
2022/08/31 13:33:27;;;;;;;0.30;0.28;;;;;;;26.27;33.49;102022.00;6237041;28;20046;-82
2022/08/31 13:36:33;;;;;;;0.38;0.38;;;;;;;26.21;32.43;102019.06;6271450;28;20044;-79
2022/08/31 13:39:37;;;;;;;0.13;0.13;;;;;;;26.24;33.32;102006.13;6280939;28;20045;-77
2022/08/31 13:42:42;;;;;;;1.83;0.38;;;;;;;26.36;32.26;102019.38;6279720;28;20056;-81
2022/08/31 13:45:56;;;;;;;0.68;0.40;;;;;;;26.71;31.05;102007.75;6273282;28;20045;-82
2022/08/31 13:49:02;;;;;;;0.40;0.30;;;;;;;26.81;31.50;102003.09;6268813;28;20653;-80
2022/08/31 13:52:07;;;;;;;0.30;0.30;;;;;;;26.84;31.80;102008.16;6256959;28;20140;-79
2022/08/31 13:55:10;;;;;;;2.85;0.47;;;;;;;26.79;32.28;101994.31;6258873;28;20476;-81
2022/08/31 13:58:26;;;;;;;0.68;0.38;;;;;;;27.00;31.73;101999.34;6261285;28;20052;-82
2022/08/31 14:01:32;;;;;;;0.20;0.10;;;;;;;27.20;29.95;101995.44;6269708;28;20049;-79
2022/08/31 14:04:59;;;;;;;0.20;0.15;;;;;;;27.32;29.76;101998.72;6272005;28;20483;-79
2022/08/31 14:08:03;;;;;;;1.20;0.50;;;;;;;27.23;29.94;101991.59;6255505;28;20060;-80
2022/08/31 14:11:12;;;;;;;1.48;0.30;;;;;;;27.09;31.39;101984.94;6252645;28;20389;-78
2022/08/31 14:14:14;;;;;;;0.43;0.30;;;;;;;26.92;30.81;101983.94;6250563;28;20144;-78
2022/08/31 14:17:16;;;;;;;0.30;0.30;;;;;;;27.08;31.31;101988.63;6252588;28;20045;-79
2022/08/31 14:20:35;;;;;;;0.40;0.40;;;;;;;27.26;31.42;101989.41;6254064;28;20050;-79
2022/08/31 14:23:37;;;;;;;;;;;;;;;27.50;28.72;101983.28;6275137;28;20068;-79
2022/08/31 14:26:41;;;;;;;0.50;0.40;;;;;;;27.51;28.67;101981.41;6274223;28;19948;-78
2022/08/31 14:29:42;;;;;;;1.10;0.40;;;;;;;27.68;27.57;101985.03;6276394;28;20135;-78
2022/08/31 14:32:44;;;;;;;0.68;0.47;;;;;;;27.76;28.50;101975.13;6277245;28;20060;-79
2022/08/31 14:35:47;;;;;;;0.30;0.30;;;;;;;27.72;28.91;101973.75;6273320;28;20037;-78